Time;durP1;ratioP1;P1;durP2;ratioP2;P2;SDS_P1;SDS_P2;PMS_P1;PMS_P2;Temp;Humidity;BMP_temperature;BMP_pressure;BME280_temperature;BME280_humidity;BME280_pressure;Samples;Min_cycle;Max_cycle;Signal;HPM_P1;HPM_P2
2022/07/18 00:02:00;;;;;;;;;;;;;;;15.00;95.17;99164.23;1697871;83;20298;-86
2022/07/18 00:04:30;;;;;;;;;;;;;;;15.01;95.23;99157.17;1697906;83;25556;-86
2022/07/18 00:06:56;;;;;;;;;;;;;;;15.02;95.23;99154.91;1697744;83;21952;-85
2022/07/18 00:09:23;;;;;;;;;;;;;;;14.90;95.14;99152.72;1697061;83;20816;-85
2022/07/18 00:11:49;;;;;;;;;;;;;;;14.85;95.17;99154.87;1697388;83;24515;-86
2022/07/18 00:14:15;;;;;;;;;;;;;;;14.90;95.31;99158.46;1696541;83;20302;-86
2022/07/18 00:16:41;;;;;;;;;;;;;;;14.85;95.32;99143.00;1695441;83;20290;-86
2022/07/18 00:19:08;;;;;;;;;;;;;;;14.84;95.39;99147.91;1696218;83;21488;-86
2022/07/18 00:21:34;;;;;;;;;;;;;;;14.87;95.52;99145.06;1698382;83;26136;-86
2022/07/18 00:24:00;;;;;;;;;;;;;;;14.87;95.61;99144.22;1675558;84;24445;-85
2022/07/18 00:26:26;;;;;;;;;;;;;;;14.78;95.59;99141.81;1698306;83;20453;-85
2022/07/18 00:28:52;;;;;;;;;;;;;;;14.70;95.62;99140.70;1697854;83;20742;-85
2022/07/18 00:31:18;;;;;;;;;;;;;;;14.65;95.78;99139.25;1698878;83;20254;-85
2022/07/18 00:33:44;;;;;;;;;;;;;;;14.62;95.86;99138.63;1698562;83;20753;-85
2022/07/18 00:36:11;;;;;;;;;;;;;;;14.51;95.87;99142.06;1697134;83;24496;-85
2022/07/18 00:38:37;;;;;;;;;;;;;;;14.51;96.02;99138.62;1698319;83;20537;-85
2022/07/18 00:41:04;;;;;;;;;;;;;;;14.56;96.23;99133.34;1697442;83;24743;-85
2022/07/18 00:43:30;;;;;;;;;;;;;;;14.61;96.37;99135.66;1697533;83;22058;-85
2022/07/18 00:45:57;;;;;;;;;;;;;;;14.61;96.42;99130.39;1699204;83;20757;-85
2022/07/18 00:48:23;;;;;;;;;;;;;;;14.61;96.50;99131.70;1696132;83;24547;-85
2022/07/18 00:50:49;;;;;;;;;;;;;;;14.60;96.61;99131.33;1694513;83;20334;-85
2022/07/18 00:53:16;;;;;;;;;;;;;;;14.54;96.63;99133.95;1705215;83;20242;-85
2022/07/18 00:55:48;;;;;;;;;;;;;;;14.53;96.73;99127.47;1697392;83;21946;-84
2022/07/18 00:58:12;;;;;;;;;;;;;;;14.47;96.79;99131.87;1696871;83;25990;-84
2022/07/18 01:03:23;;;;;;;;;;;;;;;14.06;96.80;99130.49;1698546;83;20318;-84
2022/07/18 01:05:49;;;;;;;;;;;;;;;13.80;96.89;99132.35;1697419;83;24919;-84
2022/07/18 01:08:16;;;;;;;;;;;;;;;13.72;97.24;99126.81;1700016;83;20344;-84
2022/07/18 01:10:43;;;;;;;;;;;;;;;13.69;97.68;99134.09;1696611;83;26037;-84
2022/07/18 01:13:09;;;;;;;;;;;;;;;13.70;98.16;99131.33;1699800;83;23877;-85
2022/07/18 01:15:36;;;;;;;;;;;;;;;13.85;98.64;99128.58;1697920;82;20542;-84
2022/07/18 01:18:02;;;;;;;;;;;;;;;13.95;99.00;99137.48;1695952;83;24785;-84
2022/07/18 01:20:30;;;;;;;;;;;;;;;13.88;99.16;99130.50;1693133;83;22599;-84
2022/07/18 01:22:56;;;;;;;;;;;;;;;13.74;99.31;99132.82;1691682;83;26670;-84
2022/07/18 01:25:26;;;;;;;;;;;;;;;13.69;99.63;99133.59;1693950;83;24457;-84
2022/07/18 01:27:53;;;;;;;;;;;;;;;13.79;100.00;99133.33;1695445;83;20251;-85
2022/07/18 01:30:19;;;;;;;;;;;;;;;13.95;100.00;99122.53;1696998;83;24821;-85
2022/07/18 01:32:45;;;;;;;;;;;;;;;14.07;100.00;99130.02;1696549;83;20373;-85
2022/07/18 01:35:11;;;;;;;;;;;;;;;14.11;100.00;99129.67;1695227;83;25980;-85
2022/07/18 01:37:38;;;;;;;;;;;;;;;14.11;100.00;99128.36;1696367;83;25794;-84
2022/07/18 01:40:09;;;;;;;;;;;;;;;14.17;100.00;99129.23;1682088;83;20172;-84
2022/07/18 01:42:35;;;;;;;;;;;;;;;14.22;100.00;99134.16;1696712;83;24407;-84
2022/07/18 01:45:01;;;;;;;;;;;;;;;14.22;100.00;99127.57;1695413;83;20351;-85
2022/07/18 01:47:27;;;;;;;;;;;;;;;14.19;100.00;99129.94;1696564;83;21018;-85
2022/07/18 01:49:53;;;;;;;;;;;;;;;14.13;100.00;99124.27;1696815;83;24438;-85
2022/07/18 01:52:19;;;;;;;;;;;;;;;14.05;100.00;99127.48;1696136;83;20811;-85
2022/07/18 01:54:45;;;;;;;;;;;;;;;13.96;100.00;99129.48;1697386;83;24711;-85
2022/07/18 01:57:11;;;;;;;;;;;;;;;13.90;100.00;99125.98;1694630;83;20258;-85
2022/07/18 01:59:37;;;;;;;;;;;;;;;13.82;100.00;99123.04;1697389;83;26080;-85
2022/07/18 02:02:04;;;;;;;;;;;;;;;13.77;100.00;99123.38;1693787;83;20364;-85
2022/07/18 02:07:14;;;;;;;;;;;;;;;13.67;100.00;99128.94;1694609;83;25051;-85
2022/07/18 02:09:40;;;;;;;;;;;;;;;13.62;100.00;99138.95;1695447;83;21663;-84
2022/07/18 02:12:06;;;;;;;;;;;;;;;13.53;100.00;99136.95;1696113;84;21037;-84
2022/07/18 02:14:34;;;;;;;;;;;;;;;13.46;100.00;99133.56;1695516;83;20820;-85
2022/07/18 02:17:00;;;;;;;;;;;;;;;13.40;100.00;99134.83;1697835;83;20235;-85
2022/07/18 02:19:26;;;;;;;;;;;;;;;13.37;100.00;99133.72;1697223;83;20840;-86
2022/07/18 02:21:52;;;;;;;;;;;;;;;13.36;100.00;99132.06;1697604;83;20816;-86
2022/07/18 02:24:18;;;;;;;;;;;;;;;13.35;100.00;99136.48;1699208;83;21152;-86
2022/07/18 02:26:44;;;;;;;;;;;;;;;13.29;100.00;99142.16;1697708;83;20261;-85
2022/07/18 02:29:09;;;;;;;;;;;;;;;13.24;100.00;99136.85;1697845;83;20316;-86
2022/07/18 02:31:35;;;;;;;;;;;;;;;13.19;100.00;99141.12;1698693;83;20773;-86
2022/07/18 02:34:09;;;;;;;;;;;;;;;13.12;100.00;99138.54;1697214;83;21458;-85
2022/07/18 02:36:30;;;;;;;;;;;;;;;13.08;100.00;99140.14;1695016;83;25995;-86
2022/07/18 02:38:57;;;;;;;;;;;;;;;13.03;100.00;99144.88;1692159;83;25158;-85
2022/07/18 02:41:23;;;;;;;;;;;;;;;13.02;100.00;99149.28;1700166;83;20219;-85
2022/07/18 02:43:48;;;;;;;;;;;;;;;13.02;100.00;99137.93;1697128;83;20329;-85
2022/07/18 02:46:15;;;;;;;;;;;;;;;13.02;100.00;99144.03;1697390;83;20226;-85
2022/07/18 02:48:40;;;;;;;;;;;;;;;13.00;100.00;99136.71;1697905;83;26001;-84
2022/07/18 02:51:07;;;;;;;;;;;;;;;13.01;100.00;99139.72;1698031;83;20269;-85
2022/07/18 02:53:32;;;;;;;;;;;;;;;13.03;100.00;99144.88;1697940;83;20199;-85
2022/07/18 02:55:58;;;;;;;;;;;;;;;13.04;100.00;99141.30;1697731;83;20284;-85
2022/07/18 02:58:25;;;;;;;;;;;;;;;13.03;100.00;99148.34;1697423;83;21282;-84
2022/07/18 03:00:51;;;;;;;;;;;;;;;12.99;100.00;99146.38;1698040;83;26590;-84
2022/07/18 03:03:16;;;;;;;;;;;;;;;12.98;100.00;99141.25;1696661;83;20380;-84
2022/07/18 03:05:43;;;;;;;;;;;;;;;12.97;100.00;99135.62;1698491;83;20175;-84
2022/07/18 03:08:08;;;;;;;;;;;;;;;12.97;100.00;99136.94;1697381;83;20281;-84
2022/07/18 03:10:34;;;;;;;;;;;;;;;12.99;100.00;99145.53;1696978;83;20808;-85
2022/07/18 03:13:00;;;;;;;;;;;;;;;12.98;100.00;99136.00;1697498;83;26043;-84
2022/07/18 03:15:26;;;;;;;;;;;;;;;13.02;100.00;99140.56;1703444;82;20336;-85
2022/07/18 03:17:52;;;;;;;;;;;;;;;13.02;100.00;99136.15;1707225;82;20469;-84
2022/07/18 03:20:18;;;;;;;;;;;;;;;13.04;100.00;99139.99;1709464;82;20815;-84
2022/07/18 03:22:44;;;;;;;;;;;;;;;13.06;100.00;99142.02;1706600;83;20246;-84
2022/07/18 03:25:10;;;;;;;;;;;;;;;13.08;100.00;99139.67;1712849;82;20691;-84
2022/07/18 03:27:36;;;;;;;;;;;;;;;13.09;100.00;99142.64;1709240;82;20269;-84
2022/07/18 03:30:02;;;;;;;;;;;;;;;13.10;100.00;99146.95;1708920;82;20203;-84
2022/07/18 03:32:28;;;;;;;;;;;;;;;13.11;100.00;99150.42;1710446;82;24151;-85
2022/07/18 03:34:54;;;;;;;;;;;;;;;13.13;100.00;99159.09;1707113;82;20840;-84
2022/07/18 03:37:28;;;;;;;;;;;;;;;13.17;100.00;99154.83;1713568;82;20900;-85
2022/07/18 03:39:54;;;;;;;;;;;;;;;13.21;100.00;99162.02;1706666;82;24637;-84
2022/07/18 03:42:25;;;;;;;;;;;;;;;13.24;100.00;99161.35;1717163;82;20211;-85
2022/07/18 03:44:48;;;;;;;;;;;;;;;13.29;100.00;99155.77;1712549;82;24921;-84
2022/07/18 03:47:14;;;;;;;;;;;;;;;13.38;100.00;99156.44;1707116;82;20245;-85
2022/07/18 03:49:40;;;;;;;;;;;;;;;13.48;100.00;99154.84;1709268;82;21016;-85
2022/07/18 03:52:06;;;;;;;;;;;;;;;13.58;100.00;99155.87;1709208;82;20911;-85
2022/07/18 03:54:32;;;;;;;;;;;;;;;13.69;100.00;99149.38;1708486;82;20437;-85
2022/07/18 03:56:57;;;;;;;;;;;;;;;13.86;100.00;99151.28;1709499;82;24839;-85
2022/07/18 03:59:23;;;;;;;;;;;;;;;14.03;100.00;99153.06;1714406;82;20237;-85
2022/07/18 04:01:49;;;;;;;;;;;;;;;14.21;100.00;99153.05;1706878;82;21123;-84
2022/07/18 04:04:18;;;;;;;;;;;;;;;14.34;100.00;99156.95;1705763;82;20305;-84
2022/07/18 04:06:44;;;;;;;;;;;;;;;14.44;100.00;99157.98;1709359;82;20337;-84
2022/07/18 04:09:11;;;;;;;;;;;;;;;14.55;100.00;99159.81;1712423;82;24877;-84
2022/07/18 04:11:36;;;;;;;;;;;;;;;14.65;100.00;99161.65;1709082;82;20241;-84
2022/07/18 04:14:02;;;;;;;;;;;;;;;14.79;100.00;99156.64;1708738;82;20934;-84
2022/07/18 04:16:30;;;;;;;;;;;;;;;14.97;100.00;99155.26;1710790;82;20885;-84
2022/07/18 04:18:56;;;;;;;;;;;;;;;15.15;100.00;99153.02;1714045;82;20223;-84
2022/07/18 04:21:22;;;;;;;;;;;;;;;15.29;100.00;99152.77;1707983;82;24810;-84
2022/07/18 04:23:52;;;;;;;;;;;;;;;15.48;100.00;99155.67;1709953;82;20824;-84
2022/07/18 04:26:21;;;;;;;;;;;;;;;15.69;100.00;99160.24;1712007;82;26049;-85
2022/07/18 04:28:47;;;;;;;;;;;;;;;15.87;100.00;99162.75;1709530;82;24395;-85
2022/07/18 04:31:13;;;;;;;;;;;;;;;16.01;100.00;99161.63;1705343;83;20223;-85
2022/07/18 04:33:41;;;;;;;;;;;;;;;16.05;100.00;99158.61;1716361;82;20757;-85
2022/07/18 04:36:10;;;;;;;;;;;;;;;16.13;100.00;99169.89;1715298;81;22011;-84
2022/07/18 04:38:37;;;;;;;;;;;;;;;16.19;100.00;99164.11;1712458;82;25683;-84
2022/07/18 04:41:04;;;;;;;;;;;;;;;16.24;100.00;99170.70;1708623;82;24711;-85
2022/07/18 04:43:30;;;;;;;;;;;;;;;16.28;100.00;99167.31;1710673;81;20532;-84
2022/07/18 04:45:58;;;;;;;;;;;;;;;16.26;100.00;99171.39;1708094;82;24736;-85
2022/07/18 04:48:25;;;;;;;;;;;;;;;16.27;100.00;99169.12;1714216;82;21991;-85
2022/07/18 04:50:51;;;;;;;;;;;;;;;16.29;100.00;99169.84;1720637;82;26139;-85
2022/07/18 04:53:17;;;;;;;;;;;;;;;16.32;100.00;99169.58;1715647;82;20418;-84
2022/07/18 04:55:48;;;;;;;;;;;;;;;16.33;100.00;99168.63;1706208;82;20820;-84
2022/07/18 04:58:14;;;;;;;;;;;;;;;16.37;100.00;99164.39;1710584;82;24775;-84
2022/07/18 05:00:40;;;;;;;;;;;;;;;16.43;100.00;99170.50;1708952;82;20853;-85
2022/07/18 05:03:05;;;;;;;;;;;;;;;16.47;100.00;99160.06;1710680;82;21046;-85
2022/07/18 05:05:31;;;;;;;;;;;;;;;16.48;100.00;99165.67;1710788;82;20362;-85
2022/07/18 05:07:57;;;;;;;;;;;;;;;16.52;100.00;99165.80;1703155;82;20301;-85
2022/07/18 05:10:24;;;;;;;;;;;;;;;16.56;100.00;99173.34;1711746;81;24735;-85
2022/07/18 05:12:53;;;;;;;;;;;;;;;16.60;100.00;99162.90;1708907;82;22012;-84
2022/07/18 05:15:20;;;;;;;;;;;;;;;16.63;100.00;99167.95;1713829;81;25999;-84
2022/07/18 05:17:46;;;;;;;;;;;;;;;16.69;100.00;99162.63;1715120;82;24499;-84
2022/07/18 05:20:14;;;;;;;;;;;;;;;16.75;100.00;99163.42;1714717;82;20187;-84
2022/07/18 05:22:40;;;;;;;;;;;;;;;16.81;100.00;99157.63;1718070;82;25413;-84
2022/07/18 05:25:07;;;;;;;;;;;;;;;16.87;100.00;99159.75;1708652;82;22122;-84
2022/07/18 05:27:35;;;;;;;;;;;;;;;16.94;100.00;99158.28;1715775;82;26166;-83
2022/07/18 05:30:05;;;;;;;;;;;;;;;17.01;100.00;99155.96;1714637;82;37415;-84
2022/07/18 05:32:32;;;;;;;;;;;;;;;17.06;100.00;99151.12;1704433;82;20329;-83
2022/07/18 05:34:58;;;;;;;;;;;;;;;17.06;100.00;99157.73;1712254;82;24748;-83
2022/07/18 05:37:24;;;;;;;;;;;;;;;17.12;100.00;99152.77;1705870;83;20242;-83
2022/07/18 05:39:53;;;;;;;;;;;;;;;17.11;100.00;99151.08;1707819;82;20978;-84
2022/07/18 05:42:19;;;;;;;;;;;;;;;17.08;100.00;99156.62;1707671;82;24440;-83
2022/07/18 05:44:45;;;;;;;;;;;;;;;17.15;100.00;99151.16;1713254;82;20211;-83
2022/07/18 05:47:13;;;;;;;;;;;;;;;17.28;100.00;99149.64;1705849;84;24750;-84
2022/07/18 05:49:42;;;;;;;;;;;;;;;17.38;100.00;99146.55;1709684;82;22115;-84
2022/07/18 05:52:14;;;;;;;;;;;;;;;17.49;100.00;99144.30;1710507;82;25538;-83
2022/07/18 05:54:40;;;;;;;;;;;;;;;17.59;100.00;99149.14;1715837;82;24402;-84
2022/07/18 05:57:08;;;;;;;;;;;;;;;17.75;100.00;99144.69;1717950;82;20269;-84
2022/07/18 05:59:34;;;;;;;;;;;;;;;17.81;100.00;99139.70;1709569;82;24803;-84
2022/07/18 06:02:00;;;;;;;;;;;;;;;17.77;100.00;99144.08;1709322;82;21890;-84
2022/07/18 06:04:26;;;;;;;;;;;;;;;17.70;100.00;99139.80;1715665;82;21074;-84
2022/07/18 06:06:55;;;;;;;;;;;;;;;17.71;100.00;99141.48;1706988;82;24503;-84
2022/07/18 06:09:21;;;;;;;;;;;;;;;17.76;100.00;99139.27;1705927;82;20322;-84
2022/07/18 06:11:51;;;;;;;;;;;;;;;17.89;100.00;99134.55;1710768;82;20836;-84
2022/07/18 06:14:19;;;;;;;;;;;;;;;18.05;100.00;99135.85;1721308;82;22074;-84
2022/07/18 06:16:46;;;;;;;;;;;;;;;18.15;100.00;99134.05;1710349;81;26009;-84
2022/07/18 06:19:12;;;;;;;;;;;;;;;18.21;100.00;99136.99;1713692;82;25334;-84
2022/07/18 06:21:38;;;;;;;;;;;;;;;18.29;100.00;99140.26;1712996;82;20317;-84
2022/07/18 06:24:04;;;;;;;;;;;;;;;18.32;100.00;99140.84;1711658;82;20246;-84
2022/07/18 06:26:30;;;;;;;;;;;;;;;18.36;100.00;99138.73;1705285;83;21976;-84
2022/07/18 06:28:56;;;;;;;;;;;;;;;18.29;100.00;99133.63;1708200;81;21214;-84
2022/07/18 06:31:27;;;;;;;;;;;;;;;18.31;100.00;99138.32;1707182;82;20296;-84
2022/07/18 06:33:55;;;;;;;;;;;;;;;18.33;99.53;99140.33;1705390;83;20302;-84
2022/07/18 06:36:23;;;;;;;;;;;;;;;18.37;99.02;99137.77;1712717;82;24861;-84
2022/07/18 06:38:52;;;;;;;;;;;;;;;18.45;98.68;99149.82;1713214;82;22047;-84
2022/07/18 06:41:18;;;;;;;;;;;;;;;18.47;98.34;99153.18;1704935;83;26044;-84
2022/07/18 06:43:44;;;;;;;;;;;;;;;18.50;98.12;99147.59;1717904;82;24612;-84
2022/07/18 06:46:11;;;;;;;;;;;;;;;18.49;97.72;99155.22;1711670;82;20191;-84
2022/07/18 06:48:38;;;;;;;;;;;;;;;18.53;97.47;99158.41;1711634;82;24862;-84
2022/07/18 06:51:05;;;;;;;;;;;;;;;18.55;97.22;99159.96;1709762;82;22096;-84
2022/07/18 06:53:32;;;;;;;;;;;;;;;18.66;96.88;99165.61;1710205;82;26633;-84
2022/07/18 06:55:58;;;;;;;;;;;;;;;18.72;96.39;99160.59;1707366;82;24435;-84
2022/07/18 06:58:24;;;;;;;;;;;;;;;18.76;95.88;99157.19;1705783;82;20879;-84
2022/07/18 07:00:50;;;;;;;;;;;;;;;18.86;95.35;99161.15;1710375;81;24724;-84
2022/07/18 07:03:16;;;;;;;;;;;;;;;18.91;95.11;99156.25;1712446;82;21991;-84
2022/07/18 07:05:42;;;;;;;;;;;;;;;18.96;94.70;99148.22;1705772;83;20907;-84
2022/07/18 07:08:13;;;;;;;;;;;;;;;19.04;94.33;99151.47;1714316;82;20253;-84
2022/07/18 07:10:39;;;;;;;;;;;;;;;19.15;93.87;99149.48;1718584;82;20366;-84
2022/07/18 07:13:11;;;;;;;;;;;;;;;19.17;93.19;99147.53;1719592;82;25548;-84
2022/07/18 07:15:36;;;;;;;;;;;;;;;19.21;92.66;99146.75;1708661;82;22160;-84
2022/07/18 07:18:02;;;;;;;;;;;;;;;19.25;92.24;99144.66;1696993;83;21081;-84
2022/07/18 07:20:28;;;;;;;;;;;;;;;19.29;91.97;99138.91;1697503;83;20410;-84
2022/07/18 07:22:57;;;;;;;;;;;;;;;19.35;91.82;99139.67;1698997;83;20290;-84
2022/07/18 07:25:25;;;;;;;;;;;;;;;19.42;91.61;99140.73;1697466;83;25765;-85
2022/07/18 07:27:53;;;;;;;;;;;;;;;19.54;91.43;99143.59;1696963;83;22650;-85
2022/07/18 07:30:19;;;;;;;;;;;;;;;19.58;91.13;99141.50;1696857;83;25949;-84
2022/07/18 07:32:46;;;;;;;;;;;;;;;19.58;90.67;99140.98;1698597;83;20254;-84
2022/07/18 07:35:13;;;;;;;;;;;;;;;19.74;90.43;99139.05;1699156;83;20224;-84
2022/07/18 07:37:46;;;;;;;;;;;;;;;19.73;89.77;99139.18;1697980;83;24906;-84
2022/07/18 07:40:15;;;;;;;;;;;;;;;19.81;89.52;99138.77;1675083;83;20195;-84
2022/07/18 07:42:43;;;;;;;;;;;;;;;20.02;89.46;99137.17;1697489;83;21069;-84
2022/07/18 07:45:09;;;;;;;;;;;;;;;20.16;89.35;99139.83;1697333;83;24339;-84
2022/07/18 07:47:36;;;;;;;;;;;;;;;20.17;88.70;99138.84;1697467;83;20247;-84
2022/07/18 07:50:03;;;;;;;;;;;;;;;20.20;88.12;99136.71;1698097;83;24728;-84
2022/07/18 07:52:28;;;;;;;;;;;;;;;20.26;87.44;99132.13;1699667;83;22048;-85
2022/07/18 07:54:54;;;;;;;;;;;;;;;20.16;86.14;99138.02;1697188;83;21233;-84
2022/07/18 07:57:20;;;;;;;;;;;;;;;20.12;85.04;99130.00;1698598;83;24595;-84
2022/07/18 07:59:46;;;;;;;;;;;;;;;20.21;84.54;99125.59;1698153;83;20246;-84
2022/07/18 08:02:13;;;;;;;;;;;;;;;20.26;83.97;99128.62;1675726;84;20270;-85
2022/07/18 08:04:39;;;;;;;;;;;;;;;20.29;83.49;99125.16;1698678;83;23059;-84
2022/07/18 08:07:05;;;;;;;;;;;;;;;20.36;83.20;99133.41;1698463;83;21418;-84
2022/07/18 08:09:31;;;;;;;;;;;;;;;20.46;82.86;99132.34;1698325;83;24423;-85
2022/07/18 08:11:57;;;;;;;;;;;;;;;20.67;82.71;99132.54;1698873;83;20398;-85
2022/07/18 08:14:23;;;;;;;;;;;;;;;20.90;82.78;99127.04;1695935;83;20290;-85
2022/07/18 08:16:50;;;;;;;;;;;;;;;21.09;82.60;99130.01;1706342;82;21989;-85
2022/07/18 08:19:15;;;;;;;;;;;;;;;21.26;82.13;99132.66;1718643;82;26475;-85
2022/07/18 08:21:41;;;;;;;;;;;;;;;21.45;81.46;99130.24;1712068;82;20257;-85
2022/07/18 08:24:09;;;;;;;;;;;;;;;21.63;81.01;99127.50;1714008;82;20816;-85
2022/07/18 08:26:38;;;;;;;;;;;;;;;21.75;80.54;99130.71;1717361;82;24865;-85
2022/07/18 08:29:03;;;;;;;;;;;;;;;21.79;80.10;99126.23;1715176;82;21964;-85
2022/07/18 08:31:29;;;;;;;;;;;;;;;21.87;79.68;99122.27;1711837;82;26023;-85
2022/07/18 08:33:55;;;;;;;;;;;;;;;22.02;79.34;99124.67;1705103;82;24474;-85
2022/07/18 08:36:21;;;;;;;;;;;;;;;22.09;78.60;99123.00;1703255;83;20230;-85
2022/07/18 08:38:48;;;;;;;;;;;;;;;22.04;77.34;99122.66;1709222;82;20714;-85
2022/07/18 08:41:16;;;;;;;;;;;;;;;21.96;76.01;99121.33;1715524;82;21933;-85
2022/07/18 08:43:48;;;;;;;;;;;;;;;21.93;74.90;99122.93;1708242;82;21875;-84
2022/07/18 08:46:15;;;;;;;;;;;;;;;21.95;73.97;99118.31;1707408;82;24425;-84
2022/07/18 08:48:43;;;;;;;;;;;;;;;22.02;73.49;99120.67;1710531;82;20212;-84
2022/07/18 08:51:09;;;;;;;;;;;;;;;22.20;73.05;99120.55;1709766;82;24908;-84
2022/07/18 08:53:37;;;;;;;;;;;;;;;22.38;72.30;99124.39;1714085;82;20302;-84
2022/07/18 08:56:04;;;;;;;;;;;;;;;22.52;71.70;99124.59;1709010;82;26725;-84
2022/07/18 08:58:31;;;;;;;;;;;;;;;22.62;71.20;99123.09;1711599;82;24413;-84
2022/07/18 09:00:59;;;;;;;;;;;;;;;22.77;70.56;99121.44;1714694;82;20469;-84
2022/07/18 09:03:26;;;;;;;;;;;;;;;22.94;70.18;99124.93;1715271;82;24816;-84
2022/07/18 09:06:05;;;;;;;;;;;;;;;23.05;70.03;99131.76;1705323;82;21839;-84
2022/07/18 09:08:35;;;;;;;;;;;;;;;23.03;69.30;99126.58;1717856;82;26632;-85
2022/07/18 09:11:02;;;;;;;;;;;;;;;23.06;68.46;99122.75;1709529;82;25100;-85
2022/07/18 09:13:42;;;;;;;;;;;;;;;23.08;67.84;99122.89;1705121;83;20206;-84
2022/07/18 09:16:10;;;;;;;;;;;;;;;23.14;67.24;99122.72;1703266;81;24856;-85
2022/07/18 09:18:41;;;;;;;;;;;;;;;23.28;66.53;99127.38;1711606;82;22045;-85
2022/07/18 09:21:12;;;;;;;;;;;;;;;23.41;65.97;99118.31;1713295;82;26914;-85
2022/07/18 09:23:39;;;;;;;;;;;;;;;23.49;65.53;99113.48;1713468;82;24510;-85
2022/07/18 09:26:05;;;;;;;;;;;;;;;23.53;64.62;99116.97;1712129;82;20477;-85
2022/07/18 09:28:33;;;;;;;;;;;;;;;23.60;63.84;99115.78;1717951;82;20206;-85
2022/07/18 09:31:02;;;;;;;;;;;;;;;23.60;62.98;99109.94;1704878;81;22829;-85
2022/07/18 09:33:30;;;;;;;;;;;;;;;23.62;62.38;99107.91;1708161;82;26077;-85
2022/07/18 09:35:57;;;;;;;;;;;;;;;23.70;62.14;99107.88;1713911;82;24603;-85
2022/07/18 09:38:25;;;;;;;;;;;;;;;23.56;61.03;99110.45;1705088;83;20306;-85
2022/07/18 09:40:52;;;;;;;;;;;;;;;23.47;60.26;99106.97;1714362;82;24765;-85
2022/07/18 09:43:19;;;;;;;;;;;;;;;23.62;60.11;99109.23;1709583;82;22832;-85
2022/07/18 09:45:48;;;;;;;;;;;;;;;23.68;59.55;99105.04;1712251;82;26005;-85
2022/07/18 09:48:15;;;;;;;;;;;;;;;23.68;58.78;99104.54;1711239;82;24400;-84
2022/07/18 09:50:52;;;;;;;;;;;;;;;23.52;57.81;99095.75;1714215;82;20211;-85
2022/07/18 09:53:23;;;;;;;;;;;;;;;23.48;57.34;99103.80;1717488;82;24762;-85
2022/07/18 09:55:57;;;;;;;;;;;;;;;23.47;56.88;99104.30;1712842;82;22227;-85
2022/07/18 09:58:24;;;;;;;;;;;;;;;23.57;56.82;99100.91;1709027;81;26038;-85
2022/07/18 10:00:51;;;;;;;;;;;;;;;23.83;56.91;99105.16;1704927;82;25270;-85
2022/07/18 10:03:24;;;;;;;;;;;;;;;24.08;57.23;99106.67;1712883;82;20155;-85
2022/07/18 10:05:50;;;;;;;;;;;;;;;24.22;57.09;99108.61;1704836;82;25061;-85
2022/07/18 10:08:19;;;;;;;;;;;;;;;24.16;56.28;99106.64;1713949;82;22122;-85
2022/07/18 10:10:47;;;;;;;;;;;;;;;24.15;55.87;99104.47;1705402;82;26710;-85
2022/07/18 10:13:14;;;;;;;;;;;;;;;24.11;55.36;99103.13;1707461;82;24503;-85
2022/07/18 10:15:41;;;;;;;;;;;;;;;24.26;55.02;99101.92;1710049;82;20416;-86
2022/07/18 10:18:08;;;;;;;;;;;;;;;24.42;54.72;99100.97;1697881;82;24736;-85
2022/07/18 10:20:36;;;;;;;;;;;;;;;24.40;54.20;99098.45;1695764;84;23389;-85
2022/07/18 10:23:04;;;;;;;;;;;;;;;24.51;54.17;99099.38;1696308;83;25701;-85
2022/07/18 10:25:30;;;;;;;;;;;;;;;24.65;54.24;99098.27;1695690;83;25214;-85
2022/07/18 10:28:07;;;;;;;;;;;;;;;24.69;53.91;99091.03;1696013;83;20282;-85
2022/07/18 10:30:41;;;;;;;;;;;;;;;24.73;53.33;99099.53;1694860;83;24762;-85
2022/07/18 10:33:26;;;;;;;;;;;;;;;24.70;52.81;99090.53;1696251;83;21997;-85
2022/07/18 10:36:02;;;;;;;;;;;;;;;24.69;52.44;99089.70;1695106;83;26769;-84
2022/07/18 10:38:33;;;;;;;;;;;;;;;24.82;52.51;99083.73;1695315;83;25438;-85
2022/07/18 10:41:04;;;;;;;;;;;;;;;24.87;52.22;99082.17;1697700;83;20171;-84
2022/07/18 10:43:32;;;;;;;;;;;;;;;24.95;52.16;99082.11;1696918;83;24975;-85
2022/07/18 10:46:01;;;;;;;;;;;;;;;24.90;51.62;99083.17;1695655;83;22132;-85
2022/07/18 10:48:35;;;;;;;;;;;;;;;24.93;51.26;99091.33;1694654;83;26077;-85
2022/07/18 10:51:02;;;;;;;;;;;;;;;25.02;51.01;99083.55;1693806;83;24440;-85
2022/07/18 10:53:47;;;;;;;;;;;;;;;25.03;50.71;99085.22;1695453;83;20216;-84
2022/07/18 10:56:12;;;;;;;;;;;;;;;25.00;50.31;99085.07;1681758;83;24700;-85
2022/07/18 10:58:40;;;;;;;;;;;;;;;25.13;50.27;99083.11;1696540;83;20466;-85
2022/07/18 11:01:07;;;;;;;;;;;;;;;25.24;50.18;99077.29;1696365;83;25690;-85
2022/07/18 11:03:33;;;;;;;;;;;;;;;25.30;49.96;99075.22;1695405;83;24547;-85
2022/07/18 11:05:59;;;;;;;;;;;;;;;25.34;49.63;99070.30;1694616;83;20317;-85
2022/07/18 11:08:28;;;;;;;;;;;;;;;25.39;49.46;99070.58;1696233;83;24724;-85
2022/07/18 11:11:01;;;;;;;;;;;;;;;25.51;49.40;99072.28;1696020;83;22112;-85
2022/07/18 11:13:28;;;;;;;;;;;;;;;25.57;49.29;99068.89;1695894;84;26609;-85
2022/07/18 11:15:59;;;;;;;;;;;;;;;25.58;48.90;99060.67;1695532;83;24441;-84
2022/07/18 11:18:25;;;;;;;;;;;;;;;25.66;48.70;99059.70;1697537;83;20303;-85
2022/07/18 11:20:51;;;;;;;;;;;;;;;25.69;48.46;99055.33;1698590;83;24781;-85
2022/07/18 11:23:24;;;;;;;;;;;;;;;25.71;48.28;99046.56;1698454;83;22108;-85
2022/07/18 11:25:51;;;;;;;;;;;;;;;25.77;48.03;99045.81;1698164;83;26241;-84
2022/07/18 11:28:20;;;;;;;;;;;;;;;25.83;47.82;99046.41;1696959;83;24397;-85
2022/07/18 11:30:46;;;;;;;;;;;;;;;25.84;47.40;99042.70;1697125;84;20470;-85
2022/07/18 11:33:25;;;;;;;;;;;;;;;25.86;47.11;99037.97;1698551;83;20266;-85
2022/07/18 11:35:52;;;;;;;;;;;;;;;25.90;47.13;99037.93;1697479;83;22059;-85
2022/07/18 11:38:18;;;;;;;;;;;;;;;25.87;46.87;99036.12;1697170;83;25992;-85
2022/07/18 11:40:49;;;;;;;;;;;;;;;25.89;46.60;99039.45;1697829;83;20254;-85
2022/07/18 11:43:24;;;;;;;;;;;;;;;25.94;46.48;99027.64;1675452;84;20269;-85
2022/07/18 11:46:03;;;;;;;;;;;;;;;25.93;46.30;99028.14;1697651;83;24985;-85
2022/07/18 11:48:30;;;;;;;;;;;;;;;26.01;46.05;99026.70;1695975;84;22028;-85
2022/07/18 11:50:56;;;;;;;;;;;;;;;25.99;45.62;99027.89;1697419;83;25962;-85
2022/07/18 11:53:21;;;;;;;;;;;;;;;25.89;45.47;99023.36;1696065;83;25062;-84
2022/07/18 11:55:48;;;;;;;;;;;;;;;26.00;45.66;99030.39;1697206;83;20340;-85
2022/07/18 11:58:15;;;;;;;;;;;;;;;26.11;45.62;99023.19;1697625;83;24809;-85
2022/07/18 12:00:42;;;;;;;;;;;;;;;26.11;45.28;99024.52;1698217;84;22778;-85
2022/07/18 12:03:10;;;;;;;;;;;;;;;25.94;44.70;99019.09;1697938;83;25998;-85
2022/07/18 12:05:38;;;;;;;;;;;;;;;25.83;44.44;99020.92;1696244;83;24574;-85
2022/07/18 12:08:26;;;;;;;;;;;;;;;25.96;44.69;99011.69;1694972;83;20307;-85
2022/07/18 12:11:05;;;;;;;;;;;;;;;26.13;44.74;99010.39;1696690;83;24834;-85
2022/07/18 12:13:42;;;;;;;;;;;;;;;26.11;44.38;98999.03;1698891;83;22679;-85
2022/07/18 12:16:08;;;;;;;;;;;;;;;26.10;44.31;99006.76;1697741;83;26019;-85
2022/07/18 12:18:34;;;;;;;;;;;;;;;26.20;44.28;99005.09;1707872;82;24404;-84
2022/07/18 12:21:08;;;;;;;;;;;;;;;26.31;44.08;99007.28;1705359;83;20761;-85
2022/07/18 12:23:34;;;;;;;;;;;;;;;26.40;44.07;98999.43;1714599;82;24881;-85
2022/07/18 12:26:01;;;;;;;;;;;;;;;26.34;43.59;99000.20;1711868;82;20294;-85
2022/07/18 12:28:27;;;;;;;;;;;;;;;26.32;43.60;98992.84;1709219;82;26053;-87
2022/07/18 12:30:54;;;;;;;;;;;;;;;26.44;43.79;99002.55;1705345;83;24491;-86
2022/07/18 12:33:20;;;;;;;;;;;;;;;26.56;43.96;99000.99;1705828;83;20256;-86
2022/07/18 12:35:48;;;;;;;;;;;;;;;26.66;43.97;98996.11;1715935;82;20744;-86
2022/07/18 12:38:15;;;;;;;;;;;;;;;26.62;43.64;98993.50;1707731;82;22779;-86
2022/07/18 12:40:45;;;;;;;;;;;;;;;26.66;43.34;98996.11;1709418;82;26050;-86
2022/07/18 12:43:16;;;;;;;;;;;;;;;26.64;43.15;98996.80;1705352;82;24424;-86
2022/07/18 12:45:43;;;;;;;;;;;;;;;26.68;43.07;98989.17;1708931;82;20247;-86
2022/07/18 12:48:12;;;;;;;;;;;;;;;26.65;43.02;98989.07;1704274;83;24681;-87
2022/07/18 12:50:39;;;;;;;;;;;;;;;26.76;42.88;98982.32;1708053;82;22051;-87